Pagina principale
METAR-TAF:

METAR-TAF

Aeroporti :

Aeroporto di Genova-Sestri

Genova, Italia

latitudine: 44-25N, longitudine: 008-51E, altezza: 2 m

Osservazione

Il bollettino è stato emesso 18 minuti fa, alle 09:50 UTC
Vento 9 kt da nord-est, variando fra nord e est/nord-est
Temperature 10°C
Umidità 34%
Pressione 1019 hPa
Visibilità 10 km o più
Nuvoloso ad un'altezza di 6000 ft

METAR: LIMJ 120950Z 04009KT 010V070 9999 BKN060 10/M05 Q1019

Ora: 11:08 (10:08 UTC)

Previsione

Il bollettino è stato emesso 5 ore e 8 minuti fa, alle 05:00 UTC
Previsione valida dal 12 alle 06 UTC al 13 alle 06 UTC
Vento 10 kt da nord/nord-est
Visibilità 10 km o più
Nuvoloso ad un'altezza di 4000 ft
Temporaneamente
dal 12 alle 18 UTC al 13 alle 06 UTC
pioggia

TAF: LIMJ 120500Z 1206/1306 03010KT 9999 BKN040 TEMPO 1218/1306 RA

Osservazioni e previsioni meteorologiche di più di 4000 aeroporti (messaggi METAR e TAF).

Le stazioni disponibili sono rappresentate dai dischi gialli e rossi sulla carta.

Puntare il mouse per vedere il nome della stazione.

Clicca sopra per visualizzare le osservazioni e previsioni meteorologiche.

Per cambiare la mappa : fare clic sui pulsanti verdi con una croce nera per ingrandire, il pulsante verde con un trattino per diminuire, o sulla freccia verde per le mappe adiacenti.


METAR-TAF: